Hakozaki Maru — JJ3662 — position and weather

sailwx.info

Track history (hours):
 
Tides and Currents Weather Stations Pressure Air Temp Water Temp Dewpoint Dewpoint Depression Visibility Wind Speed Wind Dir Waves Ship Positions

Hakozaki Maru

Last reported at 2014-Sep-02 07:33 UTC. Time now 2014-Sep-02 18:57 UTC.
Position N 34°42' E 135°15'.

Length 31 m; draft 2.5 m.

Type: Tug. MMSI: 431000322.

Date/timePositionNaut miles runAvg speedWind from/ knotsBaromVisibWave heightAir tempDewpointWater temp
2014-Sep-02 07:33N 34°42' E 135°15'3 2.7
2014-Sep-02 06:33N 34°41' E 135°12'2 1.7
2014-Sep-02 05:33N 34°42' E 135°14'1 0.7
2014-Sep-02 04:33N 34°42' E 135°15'1 1.5
2014-Sep-02 03:33N 34°42' E 135°17'4 3.9
2014-Sep-02 02:33N 34°41' E 135°12'0 0.0
2014-Sep-02 01:33N 34°41' E 135°12'0 0.0
2014-Sep-02 00:33N 34°41' E 135°12'0 0.0
2014-Sep-01 23:33N 34°41' E 135°12'1 1.0
2014-Sep-01 22:33N 34°41' E 135°13'3 2.7
2014-Sep-01 21:33N 34°39' E 135°16'4 3.5
2014-Sep-01 20:33N 34°41' E 135°12'2 0.1
2014-Sep-01 07:33N 34°41' E 135°14'0 0.5
2014-Sep-01 06:33N 34°41' E 135°15'1 1.1
2014-Sep-01 05:33N 34°41' E 135°13'1 1.0
2014-Sep-01 04:33N 34°41' E 135°12'0 0.0
2014-Sep-01 03:33N 34°41' E 135°12'0 0.0
2014-Sep-01 02:33N 34°41' E 135°12'0 0.0
2014-Sep-01 01:33N 34°41' E 135°12'0 0.0
2014-Sep-01 00:33N 34°41' E 135°12'3 2.9
2014-Aug-31 23:33N 34°42' E 135°16'1 1.2
2014-Aug-31 22:33N 34°41' E 135°15'1 1.4
2014-Aug-31 21:33N 34°40' E 135°16'3 3.0
2014-Aug-31 20:33N 34°41' E 135°12'0 0.0
2014-Aug-29 23:12N 34°41' E 135°13'3 4.0
2014-Aug-29 22:33N 34°42' E 135°16'2 2.5
2014-Aug-29 21:33N 34°41' E 135°13'0 0.5
2014-Aug-29 20:33N 34°41' E 135°12'0 0.0
2014-Aug-29 19:33N 34°41' E 135°12'0 0.0
2014-Aug-29 18:33N 34°41' E 135°12'0 0.0
2014-Aug-29 17:33N 34°41' E 135°12'0 0.0
2014-Aug-29 16:33N 34°41' E 135°12'0 0.0
2014-Aug-29 15:33N 34°41' E 135°12'0 0.0
2014-Aug-29 14:33N 34°41' E 135°12'0 0.0
2014-Aug-29 13:33N 34°41' E 135°12'0 0.0
2014-Aug-29 12:33N 34°41' E 135°12'0 0.0
2014-Aug-29 11:33N 34°41' E 135°12'3 2.9
2014-Aug-29 10:33N 34°42' E 135°16'3 2.9
2014-Aug-29 09:33N 34°41' E 135°12'0 0.0
2014-Aug-29 08:33N 34°41' E 135°12'0 0.0
2014-Aug-29 07:33N 34°41' E 135°12'2 1.9
2014-Aug-29 06:33N 34°40' E 135°14'2 1.9
2014-Aug-29 05:33N 34°41' E 135°12'0 0.0
2014-Aug-29 04:33N 34°41' E 135°12'0 0.0
2014-Aug-29 03:33N 34°41' E 135°12'0 0.0
2014-Aug-29 02:33N 34°41' E 135°12'0 0.0
2014-Aug-29 01:33N 34°41' E 135°12'0 0.0
2014-Aug-29 00:33N 34°41' E 135°12'2 2.5
2014-Aug-28 23:33N 34°40' E 135°15'1 0.6
2014-Aug-28 22:33N 34°40' E 135°14'2 2.0
2014-Aug-28 21:33N 34°41' E 135°12'0 0.0
2014-Aug-28 20:33N 34°41' E 135°12'2 0.2
2014-Aug-28 10:33N 34°41' E 135°15'2 1.5
2014-Aug-28 09:33N 34°40' E 135°16'3 3.2
2014-Aug-28 08:33N 34°41' E 135°12'0 0.0
2014-Aug-28 07:33N 34°41' E 135°12'0 0.0
2014-Aug-28 06:33N 34°41' E 135°12'0 0.0
2014-Aug-28 05:33N 34°41' E 135°12'0 0.0
2014-Aug-28 04:33N 34°41' E 135°12'0 0.0
2014-Aug-28 03:33N 34°41' E 135°12'0 0.0
2014-Aug-28 02:29N 34°41' E 135°12'0 0.0
2014-Aug-28 01:33N 34°41' E 135°12'0 0.0
2014-Aug-28 00:33N 34°41' E 135°12'2 1.5
2014-Aug-27 23:33N 34°41' E 135°14'1 0.1
2014-Aug-27 10:08N 34°41' E 135°15'1 2.2
2014-Aug-27 09:33N 34°42' E 135°16'3 3.1
2014-Aug-27 08:34N 34°41' E 135°12'0 0.0
2014-Aug-27 07:34N 34°41' E 135°12'0 0.0
2014-Aug-27 06:33N 34°41' E 135°12'0 0.0
2014-Aug-27 05:33N 34°41' E 135°12'0 0.0
2014-Aug-27 04:34N 34°41' E 135°12'0 0.0
2014-Aug-27 03:33N 34°41' E 135°12'0 0.0
2014-Aug-27 02:33N 34°41' E 135°12'0 0.0
2014-Aug-27 01:33N 34°41' E 135°12'0 0.0
2014-Aug-27 00:33N 34°41' E 135°12'4 4.1
2014-Aug-26 23:33N 34°41' E 135°17'1 0.6
2014-Aug-26 22:33N 34°40' E 135°18'2 1.9
2014-Aug-26 21:33N 34°42' E 135°18'5 4.7
2014-Aug-26 20:33N 34°41' E 135°12'2 0.2
2014-Aug-26 06:33N 34°42' E 135°15'1 0.9
2014-Aug-26 05:33N 34°41' E 135°14'0 0.0
2014-Aug-26 04:33N 34°41' E 135°14'1 0.9
2014-Aug-26 03:33N 34°40' E 135°15'2 2.3
2014-Aug-26 02:33N 34°41' E 135°12'0 0.0
2014-Aug-26 01:32N 34°41' E 135°12'0 0.0
2014-Aug-26 00:33N 34°41' E 135°12'0 0.0
2014-Aug-25 23:33N 34°41' E 135°12'3 2.5
2014-Aug-25 22:33N 34°39' E 135°15'1 0.8
2014-Aug-25 21:33N 34°40' E 135°15'3 2.8
2014-Aug-25 20:33N 34°41' E 135°12'4 0.3
2014-Aug-25 07:33N 34°39' E 135°16'1 1.3
2014-Aug-25 06:33N 34°40' E 135°15'0 0.0
2014-Aug-25 05:33N 34°40' E 135°15'3 3.0
2014-Aug-25 04:34N 34°41' E 135°11'1 0.7
2014-Aug-25 03:33N 34°41' E 135°12'0 0.0
2014-Aug-25 02:28N 34°41' E 135°12'0 0.0
2014-Aug-25 01:33N 34°41' E 135°12'0 0.1
2014-Aug-25 00:33N 34°41' E 135°12'3 2.9
2014-Aug-24 23:33N 34°42' E 135°16'1 1.4
2014-Aug-24 22:33N 34°41' E 135°15'2 1.7
2014-Aug-24 21:33N 34°41' E 135°13'0 0.4
2014-Aug-24 20:33N 34°41' E 135°12'  
Track history (hours):
 
Tides and Currents Weather Stations Pressure Air Temp Water Temp Dewpoint Dewpoint Depression Visibility Wind Speed Wind Dir Waves Ship Positions

Hakozaki Maru

Last reported at 2014-Sep-02 07:33 UTC. Time now 2014-Sep-02 18:57 UTC.
Position N 34°42' E 135°15'.

Length 31 m; draft 2.5 m.

Type: Tug. MMSI: 431000322.

Date/timePositionNaut miles runAvg speedWind from/ knotsBaromVisibWave heightAir tempDewpointWater temp
2014-Sep-02 07:33N 34°42' E 135°15'3 2.7
2014-Sep-02 06:33N 34°41' E 135°12'2 1.7
2014-Sep-02 05:33N 34°42' E 135°14'1 0.7
2014-Sep-02 04:33N 34°42' E 135°15'1 1.5
2014-Sep-02 03:33N 34°42' E 135°17'4 3.9
2014-Sep-02 02:33N 34°41' E 135°12'0 0.0
2014-Sep-02 01:33N 34°41' E 135°12'0 0.0
2014-Sep-02 00:33N 34°41' E 135°12'0 0.0
2014-Sep-01 23:33N 34°41' E 135°12'1 1.0
2014-Sep-01 22:33N 34°41' E 135°13'3 2.7
2014-Sep-01 21:33N 34°39' E 135°16'4 3.5
2014-Sep-01 20:33N 34°41' E 135°12'2 0.1
2014-Sep-01 07:33N 34°41' E 135°14'0 0.5
2014-Sep-01 06:33N 34°41' E 135°15'1 1.1
2014-Sep-01 05:33N 34°41' E 135°13'1 1.0
2014-Sep-01 04:33N 34°41' E 135°12'0 0.0
2014-Sep-01 03:33N 34°41' E 135°12'0 0.0
2014-Sep-01 02:33N 34°41' E 135°12'0 0.0
2014-Sep-01 01:33N 34°41' E 135°12'0 0.0
2014-Sep-01 00:33N 34°41' E 135°12'3 2.9
2014-Aug-31 23:33N 34°42' E 135°16'1 1.2
2014-Aug-31 22:33N 34°41' E 135°15'1 1.4
2014-Aug-31 21:33N 34°40' E 135°16'3 3.0
2014-Aug-31 20:33N 34°41' E 135°12'0 0.0
2014-Aug-29 23:12N 34°41' E 135°13'3 4.0
2014-Aug-29 22:33N 34°42' E 135°16'2 2.5
2014-Aug-29 21:33N 34°41' E 135°13'0 0.5
2014-Aug-29 20:33N 34°41' E 135°12'0 0.0
2014-Aug-29 19:33N 34°41' E 135°12'0 0.0
2014-Aug-29 18:33N 34°41' E 135°12'0 0.0
2014-Aug-29 17:33N 34°41' E 135°12'0 0.0
2014-Aug-29 16:33N 34°41' E 135°12'0 0.0
2014-Aug-29 15:33N 34°41' E 135°12'0 0.0
2014-Aug-29 14:33N 34°41' E 135°12'0 0.0
2014-Aug-29 13:33N 34°41' E 135°12'0 0.0
2014-Aug-29 12:33N 34°41' E 135°12'0 0.0
2014-Aug-29 11:33N 34°41' E 135°12'3 2.9
2014-Aug-29 10:33N 34°42' E 135°16'3 2.9
2014-Aug-29 09:33N 34°41' E 135°12'0 0.0
2014-Aug-29 08:33N 34°41' E 135°12'0 0.0
2014-Aug-29 07:33N 34°41' E 135°12'2 1.9
2014-Aug-29 06:33N 34°40' E 135°14'2 1.9
2014-Aug-29 05:33N 34°41' E 135°12'0 0.0
2014-Aug-29 04:33N 34°41' E 135°12'0 0.0
2014-Aug-29 03:33N 34°41' E 135°12'0 0.0
2014-Aug-29 02:33N 34°41' E 135°12'0 0.0
2014-Aug-29 01:33N 34°41' E 135°12'0 0.0
2014-Aug-29 00:33N 34°41' E 135°12'2 2.5
2014-Aug-28 23:33N 34°40' E 135°15'1 0.6
2014-Aug-28 22:33N 34°40' E 135°14'2 2.0
2014-Aug-28 21:33N 34°41' E 135°12'0 0.0
2014-Aug-28 20:33N 34°41' E 135°12'2 0.2
2014-Aug-28 10:33N 34°41' E 135°15'2 1.5
2014-Aug-28 09:33N 34°40' E 135°16'3 3.2
2014-Aug-28 08:33N 34°41' E 135°12'0 0.0
2014-Aug-28 07:33N 34°41' E 135°12'0 0.0
2014-Aug-28 06:33N 34°41' E 135°12'0 0.0
2014-Aug-28 05:33N 34°41' E 135°12'0 0.0
2014-Aug-28 04:33N 34°41' E 135°12'0 0.0
2014-Aug-28 03:33N 34°41' E 135°12'0 0.0
2014-Aug-28 02:29N 34°41' E 135°12'0 0.0
2014-Aug-28 01:33N 34°41' E 135°12'0 0.0
2014-Aug-28 00:33N 34°41' E 135°12'2 1.5
2014-Aug-27 23:33N 34°41' E 135°14'1 0.1
2014-Aug-27 10:08N 34°41' E 135°15'1 2.2
2014-Aug-27 09:33N 34°42' E 135°16'3 3.1
2014-Aug-27 08:34N 34°41' E 135°12'0 0.0
2014-Aug-27 07:34N 34°41' E 135°12'0 0.0
2014-Aug-27 06:33N 34°41' E 135°12'0 0.0
2014-Aug-27 05:33N 34°41' E 135°12'0 0.0
2014-Aug-27 04:34N 34°41' E 135°12'0 0.0
2014-Aug-27 03:33N 34°41' E 135°12'0 0.0
2014-Aug-27 02:33N 34°41' E 135°12'0 0.0
2014-Aug-27 01:33N 34°41' E 135°12'0 0.0
2014-Aug-27 00:33N 34°41' E 135°12'4 4.1
2014-Aug-26 23:33N 34°41' E 135°17'1 0.6
2014-Aug-26 22:33N 34°40' E 135°18'2 1.9
2014-Aug-26 21:33N 34°42' E 135°18'5 4.7
2014-Aug-26 20:33N 34°41' E 135°12'2 0.2
2014-Aug-26 06:33N 34°42' E 135°15'1 0.9
2014-Aug-26 05:33N 34°41' E 135°14'0 0.0
2014-Aug-26 04:33N 34°41' E 135°14'1 0.9
2014-Aug-26 03:33N 34°40' E 135°15'2 2.3
2014-Aug-26 02:33N 34°41' E 135°12'0 0.0
2014-Aug-26 01:32N 34°41' E 135°12'0 0.0
2014-Aug-26 00:33N 34°41' E 135°12'0 0.0
2014-Aug-25 23:33N 34°41' E 135°12'3 2.5
2014-Aug-25 22:33N 34°39' E 135°15'1 0.8
2014-Aug-25 21:33N 34°40' E 135°15'3 2.8
2014-Aug-25 20:33N 34°41' E 135°12'4 0.3
2014-Aug-25 07:33N 34°39' E 135°16'1 1.3
2014-Aug-25 06:33N 34°40' E 135°15'0 0.0
2014-Aug-25 05:33N 34°40' E 135°15'3 3.0
2014-Aug-25 04:34N 34°41' E 135°11'1 0.7
2014-Aug-25 03:33N 34°41' E 135°12'0 0.0
2014-Aug-25 02:28N 34°41' E 135°12'0 0.0
2014-Aug-25 01:33N 34°41' E 135°12'0 0.1
2014-Aug-25 00:33N 34°41' E 135°12'3 2.9
2014-Aug-24 23:33N 34°42' E 135°16'1 1.4
2014-Aug-24 22:33N 34°41' E 135°15'2 1.7
2014-Aug-24 21:33N 34°41' E 135°13'0 0.4
2014-Aug-24 20:33N 34°41' E 135°12'  

Dump ship's entire track history